sensor_id;sensor_type;location;lat;lon;timestamp;P1;durP1;ratioP1;P2;durP2;ratioP2
11620;SDS011;5866;49.094;11.900;2022-07-29T00:00:37;7.35;;;6.90;;
11620;SDS011;5866;49.094;11.900;2022-07-29T00:03:05;11.05;;;10.15;;
11620;SDS011;5866;49.094;11.900;2022-07-29T00:05:34;10.20;;;9.50;;
11620;SDS011;5866;49.094;11.900;2022-07-29T00:08:01;14.15;;;13.38;;
11620;SDS011;5866;49.094;11.900;2022-07-29T00:10:34;7.43;;;6.82;;
11620;SDS011;5866;49.094;11.900;2022-07-29T00:13:02;5.35;;;4.97;;
11620;SDS011;5866;49.094;11.900;2022-07-29T00:15:30;5.97;;;4.80;;
11620;SDS011;5866;49.094;11.900;2022-07-29T00:17:57;5.32;;;4.47;;
11620;SDS011;5866;49.094;11.900;2022-07-29T00:20:25;7.78;;;7.18;;
11620;SDS011;5866;49.094;11.900;2022-07-29T00:22:53;7.22;;;6.82;;
11620;SDS011;5866;49.094;11.900;2022-07-29T00:25:21;4.60;;;4.20;;
11620;SDS011;5866;49.094;11.900;2022-07-29T00:27:49;4.60;;;4.20;;
11620;SDS011;5866;49.094;11.900;2022-07-29T00:30:16;5.88;;;5.40;;
11620;SDS011;5866;49.094;11.900;2022-07-29T00:32:44;8.82;;;8.25;;
11620;SDS011;5866;49.094;11.900;2022-07-29T00:35:11;5.47;;;4.97;;
11620;SDS011;5866;49.094;11.900;2022-07-29T00:38:00;4.07;;;3.78;;
11620;SDS011;5866;49.094;11.900;2022-07-29T00:40:27;6.60;;;6.00;;
11620;SDS011;5866;49.094;11.900;2022-07-29T00:42:55;5.47;;;4.97;;
11620;SDS011;5866;49.094;11.900;2022-07-29T00:45:24;5.90;;;5.57;;
11620;SDS011;5866;49.094;11.900;2022-07-29T00:47:52;3.80;;;3.50;;
11620;SDS011;5866;49.094;11.900;2022-07-29T00:50:20;8.52;;;7.97;;
11620;SDS011;5866;49.094;11.900;2022-07-29T00:52:48;7.38;;;6.95;;
11620;SDS011;5866;49.094;11.900;2022-07-29T00:55:17;11.38;;;10.68;;
11620;SDS011;5866;49.094;11.900;2022-07-29T00:57:45;8.63;;;6.07;;
11620;SDS011;5866;49.094;11.900;2022-07-29T01:00:16;9.07;;;5.07;;
11620;SDS011;5866;49.094;11.900;2022-07-29T01:02:45;7.65;;;6.90;;
11620;SDS011;5866;49.094;11.900;2022-07-29T01:05:15;5.13;;;4.68;;
11620;SDS011;5866;49.094;11.900;2022-07-29T01:07:44;7.65;;;7.15;;
11620;SDS011;5866;49.094;11.900;2022-07-29T01:10:13;8.40;;;7.78;;
11620;SDS011;5866;49.094;11.900;2022-07-29T01:12:44;7.60;;;7.00;;
11620;SDS011;5866;49.094;11.900;2022-07-29T01:15:15;5.40;;;5.10;;
11620;SDS011;5866;49.094;11.900;2022-07-29T01:17:44;6.18;;;5.57;;
11620;SDS011;5866;49.094;11.900;2022-07-29T01:20:20;8.55;;;8.07;;
11620;SDS011;5866;49.094;11.900;2022-07-29T01:23:03;9.00;;;8.30;;
11620;SDS011;5866;49.094;11.900;2022-07-29T01:31:31;7.97;;;7.40;;
11620;SDS011;5866;49.094;11.900;2022-07-29T01:34:25;8.85;;;8.23;;
11620;SDS011;5866;49.094;11.900;2022-07-29T01:37:01;6.53;;;5.63;;
11620;SDS011;5866;49.094;11.900;2022-07-29T01:39:35;8.73;;;8.15;;
11620;SDS011;5866;49.094;11.900;2022-07-29T01:42:06;6.63;;;6.18;;
11620;SDS011;5866;49.094;11.900;2022-07-29T01:44:39;6.45;;;6.05;;
11620;SDS011;5866;49.094;11.900;2022-07-29T01:47:15;5.82;;;5.43;;
11620;SDS011;5866;49.094;11.900;2022-07-29T01:49:47;10.15;;;9.45;;
11620;SDS011;5866;49.094;11.900;2022-07-29T01:52:20;8.77;;;8.18;;
11620;SDS011;5866;49.094;11.900;2022-07-29T01:54:51;15.48;;;14.48;;
11620;SDS011;5866;49.094;11.900;2022-07-29T01:57:25;11.23;;;10.52;;
11620;SDS011;5866;49.094;11.900;2022-07-29T01:59:57;5.95;;;5.32;;
11620;SDS011;5866;49.094;11.900;2022-07-29T02:02:26;5.82;;;5.40;;
11620;SDS011;5866;49.094;11.900;2022-07-29T02:04:56;6.15;;;5.65;;
11620;SDS011;5866;49.094;11.900;2022-07-29T02:07:27;6.93;;;6.00;;
11620;SDS011;5866;49.094;11.900;2022-07-29T02:09:59;6.43;;;5.97;;
11620;SDS011;5866;49.094;11.900;2022-07-29T02:12:28;7.88;;;7.18;;
11620;SDS011;5866;49.094;11.900;2022-07-29T02:15:00;8.07;;;7.47;;
11620;SDS011;5866;49.094;11.900;2022-07-29T02:17:32;6.63;;;6.22;;
11620;SDS011;5866;49.094;11.900;2022-07-29T02:20:06;7.93;;;7.00;;
11620;SDS011;5866;49.094;11.900;2022-07-29T02:22:37;5.15;;;4.75;;
11620;SDS011;5866;49.094;11.900;2022-07-29T02:25:06;4.70;;;4.35;;
11620;SDS011;5866;49.094;11.900;2022-07-29T02:27:39;5.05;;;4.75;;
11620;SDS011;5866;49.094;11.900;2022-07-29T02:30:10;5.13;;;4.82;;
11620;SDS011;5866;49.094;11.900;2022-07-29T02:32:40;4.50;;;4.20;;
11620;SDS011;5866;49.094;11.900;2022-07-29T02:35:12;4.97;;;4.57;;
11620;SDS011;5866;49.094;11.900;2022-07-29T02:37:41;5.20;;;4.72;;
11620;SDS011;5866;49.094;11.900;2022-07-29T02:40:11;7.60;;;7.15;;
11620;SDS011;5866;49.094;11.900;2022-07-29T02:42:42;13.43;;;12.63;;
11620;SDS011;5866;49.094;11.900;2022-07-29T02:45:13;9.15;;;8.38;;
11620;SDS011;5866;49.094;11.900;2022-07-29T02:47:41;11.45;;;10.55;;
11620;SDS011;5866;49.094;11.900;2022-07-29T02:50:11;13.45;;;12.68;;
11620;SDS011;5866;49.094;11.900;2022-07-29T02:52:42;18.35;;;17.23;;
11620;SDS011;5866;49.094;11.900;2022-07-29T02:55:14;21.88;;;20.77;;
11620;SDS011;5866;49.094;11.900;2022-07-29T02:57:46;20.33;;;19.13;;
11620;SDS011;5866;49.094;11.900;2022-07-29T03:00:22;17.13;;;16.23;;
11620;SDS011;5866;49.094;11.900;2022-07-29T03:02:54;12.40;;;11.55;;
11620;SDS011;5866;49.094;11.900;2022-07-29T03:05:25;11.80;;;10.90;;
11620;SDS011;5866;49.094;11.900;2022-07-29T03:07:55;9.50;;;8.73;;
11620;SDS011;5866;49.094;11.900;2022-07-29T03:10:24;12.98;;;12.18;;
11620;SDS011;5866;49.094;11.900;2022-07-29T03:12:52;13.07;;;12.18;;
11620;SDS011;5866;49.094;11.900;2022-07-29T03:15:23;15.73;;;14.82;;
11620;SDS011;5866;49.094;11.900;2022-07-29T03:17:51;13.57;;;12.63;;
11620;SDS011;5866;49.094;11.900;2022-07-29T03:20:20;12.52;;;11.77;;
11620;SDS011;5866;49.094;11.900;2022-07-29T03:22:48;19.52;;;18.38;;
11620;SDS011;5866;49.094;11.900;2022-07-29T03:25:17;17.33;;;16.35;;
11620;SDS011;5866;49.094;11.900;2022-07-29T03:27:46;20.05;;;18.85;;
11620;SDS011;5866;49.094;11.900;2022-07-29T03:30:15;14.10;;;13.32;;
11620;SDS011;5866;49.094;11.900;2022-07-29T03:32:49;21.05;;;19.88;;
11620;SDS011;5866;49.094;11.900;2022-07-29T03:35:17;18.83;;;17.75;;
11620;SDS011;5866;49.094;11.900;2022-07-29T03:37:45;23.27;;;21.90;;
11620;SDS011;5866;49.094;11.900;2022-07-29T03:40:16;22.95;;;21.65;;
11620;SDS011;5866;49.094;11.900;2022-07-29T03:42:49;18.15;;;16.83;;
11620;SDS011;5866;49.094;11.900;2022-07-29T03:45:20;19.48;;;18.38;;
11620;SDS011;5866;49.094;11.900;2022-07-29T03:47:51;15.32;;;14.02;;
11620;SDS011;5866;49.094;11.900;2022-07-29T03:50:26;22.25;;;20.85;;
11620;SDS011;5866;49.094;11.900;2022-07-29T03:52:55;20.45;;;18.95;;
11620;SDS011;5866;49.094;11.900;2022-07-29T03:55:23;24.52;;;23.13;;
11620;SDS011;5866;49.094;11.900;2022-07-29T03:57:51;23.10;;;21.60;;
11620;SDS011;5866;49.094;11.900;2022-07-29T04:00:20;24.13;;;22.70;;
11620;SDS011;5866;49.094;11.900;2022-07-29T04:02:48;25.27;;;23.75;;
11620;SDS011;5866;49.094;11.900;2022-07-29T04:05:18;22.65;;;21.35;;
11620;SDS011;5866;49.094;11.900;2022-07-29T04:07:46;21.25;;;19.75;;
11620;SDS011;5866;49.094;11.900;2022-07-29T04:10:14;23.02;;;21.65;;
11620;SDS011;5866;49.094;11.900;2022-07-29T04:12:57;21.42;;;19.88;;
11620;SDS011;5866;49.094;11.900;2022-07-29T04:15:25;22.65;;;21.45;;
11620;SDS011;5866;49.094;11.900;2022-07-29T04:17:56;20.30;;;19.08;;
11620;SDS011;5866;49.094;11.900;2022-07-29T04:20:26;22.60;;;21.30;;
11620;SDS011;5866;49.094;11.900;2022-07-29T04:22:53;23.33;;;22.02;;
11620;SDS011;5866;49.094;11.900;2022-07-29T04:25:21;19.73;;;18.52;;
11620;SDS011;5866;49.094;11.900;2022-07-29T04:27:49;18.30;;;17.15;;
11620;SDS011;5866;49.094;11.900;2022-07-29T04:30:29;21.55;;;20.38;;
11620;SDS011;5866;49.094;11.900;2022-07-29T04:32:58;18.20;;;17.10;;
11620;SDS011;5866;49.094;11.900;2022-07-29T04:35:28;19.08;;;17.88;;
11620;SDS011;5866;49.094;11.900;2022-07-29T04:38:03;11.75;;;10.80;;
11620;SDS011;5866;49.094;11.900;2022-07-29T04:40:32;22.77;;;21.48;;
11620;SDS011;5866;49.094;11.900;2022-07-29T04:43:03;15.45;;;14.50;;
11620;SDS011;5866;49.094;11.900;2022-07-29T04:45:31;16.88;;;15.90;;
11620;SDS011;5866;49.094;11.900;2022-07-29T04:47:58;21.27;;;19.45;;
11620;SDS011;5866;49.094;11.900;2022-07-29T04:50:27;18.48;;;17.38;;
11620;SDS011;5866;49.094;11.900;2022-07-29T04:52:55;20.27;;;19.13;;
11620;SDS011;5866;49.094;11.900;2022-07-29T04:55:22;20.98;;;19.77;;
11620;SDS011;5866;49.094;11.900;2022-07-29T04:57:50;17.83;;;16.52;;
11620;SDS011;5866;49.094;11.900;2022-07-29T05:00:18;16.08;;;15.07;;
11620;SDS011;5866;49.094;11.900;2022-07-29T05:02:46;14.02;;;13.10;;
11620;SDS011;5866;49.094;11.900;2022-07-29T05:05:13;11.50;;;10.77;;
11620;SDS011;5866;49.094;11.900;2022-07-29T05:07:42;16.05;;;14.95;;
11620;SDS011;5866;49.094;11.900;2022-07-29T05:10:09;18.30;;;17.20;;
11620;SDS011;5866;49.094;11.900;2022-07-29T05:12:37;14.27;;;13.35;;
11620;SDS011;5866;49.094;11.900;2022-07-29T05:15:05;18.75;;;17.65;;
11620;SDS011;5866;49.094;11.900;2022-07-29T05:17:33;17.50;;;16.30;;
11620;SDS011;5866;49.094;11.900;2022-07-29T05:20:01;18.55;;;17.25;;
11620;SDS011;5866;49.094;11.900;2022-07-29T05:22:29;10.57;;;9.90;;
11620;SDS011;5866;49.094;11.900;2022-07-29T05:24:58;10.30;;;9.50;;
11620;SDS011;5866;49.094;11.900;2022-07-29T05:27:32;15.40;;;14.40;;
11620;SDS011;5866;49.094;11.900;2022-07-29T05:29:59;14.32;;;13.13;;
11620;SDS011;5866;49.094;11.900;2022-07-29T05:32:27;18.30;;;17.20;;
11620;SDS011;5866;49.094;11.900;2022-07-29T05:34:54;16.73;;;15.63;;
11620;SDS011;5866;49.094;11.900;2022-07-29T05:37:22;14.93;;;14.13;;
11620;SDS011;5866;49.094;11.900;2022-07-29T05:39:49;11.52;;;10.70;;
11620;SDS011;5866;49.094;11.900;2022-07-29T05:42:29;7.19;;;6.68;;
11620;SDS011;5866;49.094;11.900;2022-07-29T05:44:56;17.30;;;16.10;;
11620;SDS011;5866;49.094;11.900;2022-07-29T05:47:24;13.88;;;12.98;;
11620;SDS011;5866;49.094;11.900;2022-07-29T05:49:52;14.32;;;13.52;;
11620;SDS011;5866;49.094;11.900;2022-07-29T05:52:20;18.13;;;17.05;;
11620;SDS011;5866;49.094;11.900;2022-07-29T05:54:48;17.25;;;15.80;;
11620;SDS011;5866;49.094;11.900;2022-07-29T05:57:15;17.42;;;16.33;;
11620;SDS011;5866;49.094;11.900;2022-07-29T05:59:45;15.45;;;13.95;;
11620;SDS011;5866;49.094;11.900;2022-07-29T06:02:14;18.45;;;17.00;;
11620;SDS011;5866;49.094;11.900;2022-07-29T06:04:42;13.18;;;12.00;;
11620;SDS011;5866;49.094;11.900;2022-07-29T06:07:10;17.95;;;16.42;;
11620;SDS011;5866;49.094;11.900;2022-07-29T06:09:38;16.25;;;14.98;;
11620;SDS011;5866;49.094;11.900;2022-07-29T06:12:06;12.95;;;11.93;;
11620;SDS011;5866;49.094;11.900;2022-07-29T06:14:33;8.85;;;8.25;;
11620;SDS011;5866;49.094;11.900;2022-07-29T06:17:03;8.73;;;8.05;;
11620;SDS011;5866;49.094;11.900;2022-07-29T06:19:33;9.93;;;8.90;;
11620;SDS011;5866;49.094;11.900;2022-07-29T06:22:01;21.63;;;20.27;;
11620;SDS011;5866;49.094;11.900;2022-07-29T06:24:29;27.90;;;26.27;;
11620;SDS011;5866;49.094;11.900;2022-07-29T06:26:56;25.20;;;23.75;;
11620;SDS011;5866;49.094;11.900;2022-07-29T06:29:24;17.83;;;16.80;;
11620;SDS011;5866;49.094;11.900;2022-07-29T06:31:52;25.15;;;23.55;;
11620;SDS011;5866;49.094;11.900;2022-07-29T06:34:21;19.15;;;18.02;;
11620;SDS011;5866;49.094;11.900;2022-07-29T06:36:48;28.35;;;26.40;;
11620;SDS011;5866;49.094;11.900;2022-07-29T06:39:17;34.53;;;32.53;;
11620;SDS011;5866;49.094;11.900;2022-07-29T06:41:46;25.67;;;24.02;;
11620;SDS011;5866;49.094;11.900;2022-07-29T06:44:14;13.85;;;13.02;;
11620;SDS011;5866;49.094;11.900;2022-07-29T06:46:43;10.95;;;10.25;;
11620;SDS011;5866;49.094;11.900;2022-07-29T06:49:10;9.43;;;8.73;;
11620;SDS011;5866;49.094;11.900;2022-07-29T06:51:41;13.65;;;9.35;;
11620;SDS011;5866;49.094;11.900;2022-07-29T06:54:08;10.70;;;9.90;;
11620;SDS011;5866;49.094;11.900;2022-07-29T06:56:36;18.73;;;17.67;;
11620;SDS011;5866;49.094;11.900;2022-07-29T06:59:07;16.55;;;15.55;;
11620;SDS011;5866;49.094;11.900;2022-07-29T07:01:36;18.08;;;17.08;;
11620;SDS011;5866;49.094;11.900;2022-07-29T07:04:04;16.30;;;15.38;;
11620;SDS011;5866;49.094;11.900;2022-07-29T07:06:32;16.70;;;15.73;;
11620;SDS011;5866;49.094;11.900;2022-07-29T07:09:02;15.20;;;14.15;;
11620;SDS011;5866;49.094;11.900;2022-07-29T07:11:29;15.02;;;14.10;;
11620;SDS011;5866;49.094;11.900;2022-07-29T07:13:57;15.35;;;14.45;;
11620;SDS011;5866;49.094;11.900;2022-07-29T07:16:29;13.90;;;12.82;;
11620;SDS011;5866;49.094;11.900;2022-07-29T07:18:57;13.00;;;12.18;;
11620;SDS011;5866;49.094;11.900;2022-07-29T07:21:25;10.52;;;9.68;;
11620;SDS011;5866;49.094;11.900;2022-07-29T07:23:55;12.80;;;11.82;;
11620;SDS011;5866;49.094;11.900;2022-07-29T07:26:24;8.38;;;7.72;;
11620;SDS011;5866;49.094;11.900;2022-07-29T07:28:53;5.78;;;5.25;;
11620;SDS011;5866;49.094;11.900;2022-07-29T07:31:20;5.75;;;5.35;;
11620;SDS011;5866;49.094;11.900;2022-07-29T07:33:48;8.07;;;7.50;;
11620;SDS011;5866;49.094;11.900;2022-07-29T07:36:16;11.07;;;10.18;;
11620;SDS011;5866;49.094;11.900;2022-07-29T07:38:43;9.65;;;9.00;;
11620;SDS011;5866;49.094;11.900;2022-07-29T07:41:10;15.80;;;14.90;;
11620;SDS011;5866;49.094;11.900;2022-07-29T07:43:39;14.80;;;13.95;;
11620;SDS011;5866;49.094;11.900;2022-07-29T07:46:07;12.38;;;11.57;;
11620;SDS011;5866;49.094;11.900;2022-07-29T07:48:35;14.27;;;13.18;;
11620;SDS011;5866;49.094;11.900;2022-07-29T07:51:02;7.53;;;6.90;;
11620;SDS011;5866;49.094;11.900;2022-07-29T07:53:30;10.02;;;9.32;;
11620;SDS011;5866;49.094;11.900;2022-07-29T07:55:57;6.28;;;5.78;;
11620;SDS011;5866;49.094;11.900;2022-07-29T07:58:36;9.27;;;8.57;;
11620;SDS011;5866;49.094;11.900;2022-07-29T08:01:05;12.98;;;12.15;;
11620;SDS011;5866;49.094;11.900;2022-07-29T08:03:33;10.88;;;10.10;;
11620;SDS011;5866;49.094;11.900;2022-07-29T08:06:01;11.18;;;10.57;;
11620;SDS011;5866;49.094;11.900;2022-07-29T08:08:29;9.23;;;8.57;;
11620;SDS011;5866;49.094;11.900;2022-07-29T08:10:56;8.10;;;7.50;;
11620;SDS011;5866;49.094;11.900;2022-07-29T08:13:28;13.05;;;12.35;;
11620;SDS011;5866;49.094;11.900;2022-07-29T08:15:56;8.75;;;8.15;;
11620;SDS011;5866;49.094;11.900;2022-07-29T08:18:29;10.40;;;9.73;;
11620;SDS011;5866;49.094;11.900;2022-07-29T08:20:57;13.70;;;12.90;;
11620;SDS011;5866;49.094;11.900;2022-07-29T08:23:25;15.90;;;14.98;;
11620;SDS011;5866;49.094;11.900;2022-07-29T08:26:13;18.50;;;17.15;;
11620;SDS011;5866;49.094;11.900;2022-07-29T08:28:42;16.80;;;15.77;;
11620;SDS011;5866;49.094;11.900;2022-07-29T08:31:12;14.13;;;13.13;;
11620;SDS011;5866;49.094;11.900;2022-07-29T08:33:41;9.05;;;8.15;;
11620;SDS011;5866;49.094;11.900;2022-07-29T08:36:09;7.03;;;6.43;;
11620;SDS011;5866;49.094;11.900;2022-07-29T08:38:39;7.43;;;6.85;;
11620;SDS011;5866;49.094;11.900;2022-07-29T08:41:06;7.10;;;6.40;;
11620;SDS011;5866;49.094;11.900;2022-07-29T08:43:34;10.00;;;9.32;;
11620;SDS011;5866;49.094;11.900;2022-07-29T08:46:03;7.32;;;6.82;;
11620;SDS011;5866;49.094;11.900;2022-07-29T08:48:31;8.18;;;7.63;;
11620;SDS011;5866;49.094;11.900;2022-07-29T08:51:01;8.10;;;7.50;;
11620;SDS011;5866;49.094;11.900;2022-07-29T08:53:30;9.25;;;8.55;;
11620;SDS011;5866;49.094;11.900;2022-07-29T08:55:58;7.95;;;7.35;;
11620;SDS011;5866;49.094;11.900;2022-07-29T08:58:27;6.78;;;5.82;;
11620;SDS011;5866;49.094;11.900;2022-07-29T09:01:02;5.43;;;4.93;;
11620;SDS011;5866;49.094;11.900;2022-07-29T09:03:34;8.88;;;8.07;;
11620;SDS011;5866;49.094;11.900;2022-07-29T09:06:05;7.63;;;6.50;;
11620;SDS011;5866;49.094;11.900;2022-07-29T09:08:32;11.57;;;10.80;;
11620;SDS011;5866;49.094;11.900;2022-07-29T09:11:00;9.52;;;8.90;;
11620;SDS011;5866;49.094;11.900;2022-07-29T09:13:30;13.85;;;12.68;;
11620;SDS011;5866;49.094;11.900;2022-07-29T09:15:58;14.43;;;13.57;;
11620;SDS011;5866;49.094;11.900;2022-07-29T09:18:33;12.05;;;11.20;;
11620;SDS011;5866;49.094;11.900;2022-07-29T09:21:02;17.25;;;16.23;;
11620;SDS011;5866;49.094;11.900;2022-07-29T09:26:34;20.08;;;18.80;;
11620;SDS011;5866;49.094;11.900;2022-07-29T09:29:07;17.58;;;16.35;;
11620;SDS011;5866;49.094;11.900;2022-07-29T09:31:37;14.27;;;13.38;;
11620;SDS011;5866;49.094;11.900;2022-07-29T09:34:06;13.52;;;12.57;;
11620;SDS011;5866;49.094;11.900;2022-07-29T09:36:38;17.95;;;16.95;;
11620;SDS011;5866;49.094;11.900;2022-07-29T09:39:07;17.58;;;16.58;;
11620;SDS011;5866;49.094;11.900;2022-07-29T09:41:45;19.05;;;17.85;;
11620;SDS011;5866;49.094;11.900;2022-07-29T09:44:13;17.00;;;15.80;;
11620;SDS011;5866;49.094;11.900;2022-07-29T09:46:52;19.92;;;18.63;;
11620;SDS011;5866;49.094;11.900;2022-07-29T09:49:21;20.75;;;19.45;;
11620;SDS011;5866;49.094;11.900;2022-07-29T09:51:58;14.00;;;13.20;;
11620;SDS011;5866;49.094;11.900;2022-07-29T09:54:28;20.33;;;19.23;;
11620;SDS011;5866;49.094;11.900;2022-07-29T09:57:00;18.83;;;17.73;;
11620;SDS011;5866;49.094;11.900;2022-07-29T09:59:28;25.92;;;24.27;;
11620;SDS011;5866;49.094;11.900;2022-07-29T10:01:55;24.48;;;23.08;;
11620;SDS011;5866;49.094;11.900;2022-07-29T10:04:24;18.02;;;16.83;;
11620;SDS011;5866;49.094;11.900;2022-07-29T10:07:03;18.08;;;16.88;;
11620;SDS011;5866;49.094;11.900;2022-07-29T10:09:32;15.05;;;14.25;;
11620;SDS011;5866;49.094;11.900;2022-07-29T10:12:07;15.93;;;14.95;;
11620;SDS011;5866;49.094;11.900;2022-07-29T10:14:37;19.00;;;17.80;;
11620;SDS011;5866;49.094;11.900;2022-07-29T10:17:05;12.27;;;11.57;;
11620;SDS011;5866;49.094;11.900;2022-07-29T10:19:34;17.13;;;16.13;;
11620;SDS011;5866;49.094;11.900;2022-07-29T10:22:03;17.60;;;16.70;;
11620;SDS011;5866;49.094;11.900;2022-07-29T10:24:33;19.35;;;18.25;;
11620;SDS011;5866;49.094;11.900;2022-07-29T10:27:04;20.55;;;19.45;;
11620;SDS011;5866;49.094;11.900;2022-07-29T10:29:32;20.05;;;18.83;;
11620;SDS011;5866;49.094;11.900;2022-07-29T10:35:09;18.73;;;17.65;;
11620;SDS011;5866;49.094;11.900;2022-07-29T10:40:57;25.13;;;23.75;;
11620;SDS011;5866;49.094;11.900;2022-07-29T10:43:51;14.52;;;13.73;;
11620;SDS011;5866;49.094;11.900;2022-07-29T10:46:21;20.10;;;18.90;;
11620;SDS011;5866;49.094;11.900;2022-07-29T10:51:53;27.05;;;25.45;;
11620;SDS011;5866;49.094;11.900;2022-07-29T10:54:41;26.42;;;24.75;;
11620;SDS011;5866;49.094;11.900;2022-07-29T10:57:17;20.75;;;19.65;;
11620;SDS011;5866;49.094;11.900;2022-07-29T10:59:51;23.23;;;21.98;;
11620;SDS011;5866;49.094;11.900;2022-07-29T11:02:55;27.90;;;26.40;;
11620;SDS011;5866;49.094;11.900;2022-07-29T11:05:24;24.85;;;23.15;;
11620;SDS011;5866;49.094;11.900;2022-07-29T11:08:18;23.17;;;21.92;;
11620;SDS011;5866;49.094;11.900;2022-07-29T11:14:01;21.40;;;20.25;;
11620;SDS011;5866;49.094;11.900;2022-07-29T11:16:57;20.73;;;19.52;;
11620;SDS011;5866;49.094;11.900;2022-07-29T11:19:32;18.35;;;17.20;;
11620;SDS011;5866;49.094;11.900;2022-07-29T11:22:01;14.30;;;13.15;;
11620;SDS011;5866;49.094;11.900;2022-07-29T11:24:30;20.60;;;19.50;;
11620;SDS011;5866;49.094;11.900;2022-07-29T11:27:09;21.52;;;20.35;;
11620;SDS011;5866;49.094;11.900;2022-07-29T11:29:50;20.33;;;19.13;;
11620;SDS011;5866;49.094;11.900;2022-07-29T11:32:19;21.88;;;20.67;;
11620;SDS011;5866;49.094;11.900;2022-07-29T11:34:49;22.13;;;20.85;;
11620;SDS011;5866;49.094;11.900;2022-07-29T11:37:43;18.95;;;17.90;;
11620;SDS011;5866;49.094;11.900;2022-07-29T11:40:31;21.50;;;20.35;;
11620;SDS011;5866;49.094;11.900;2022-07-29T11:42:59;21.60;;;20.45;;
11620;SDS011;5866;49.094;11.900;2022-07-29T11:45:45;17.55;;;16.55;;
11620;SDS011;5866;49.094;11.900;2022-07-29T11:48:17;20.05;;;18.95;;
11620;SDS011;5866;49.094;11.900;2022-07-29T11:51:09;16.63;;;15.73;;
11620;SDS011;5866;49.094;11.900;2022-07-29T11:53:38;15.07;;;14.20;;
11620;SDS011;5866;49.094;11.900;2022-07-29T11:56:08;12.10;;;9.13;;
11620;SDS011;5866;49.094;11.900;2022-07-29T11:58:42;8.88;;;8.35;;
11620;SDS011;5866;49.094;11.900;2022-07-29T12:01:13;6.03;;;5.72;;
11620;SDS011;5866;49.094;11.900;2022-07-29T12:03:44;6.25;;;5.85;;
11620;SDS011;5866;49.094;11.900;2022-07-29T12:06:13;5.65;;;5.32;;
11620;SDS011;5866;49.094;11.900;2022-07-29T12:08:43;4.78;;;4.47;;
11620;SDS011;5866;49.094;11.900;2022-07-29T12:11:16;4.45;;;4.18;;
11620;SDS011;5866;49.094;11.900;2022-07-29T12:13:47;3.97;;;3.67;;
11620;SDS011;5866;49.094;11.900;2022-07-29T12:16:16;3.80;;;3.60;;
11620;SDS011;5866;49.094;11.900;2022-07-29T12:18:55;2.85;;;2.65;;
11620;SDS011;5866;49.094;11.900;2022-07-29T12:21:24;3.75;;;3.45;;
11620;SDS011;5866;49.094;11.900;2022-07-29T12:23:56;3.15;;;2.95;;
11620;SDS011;5866;49.094;11.900;2022-07-29T12:26:34;3.97;;;3.08;;
11620;SDS011;5866;49.094;11.900;2022-07-29T12:29:02;3.58;;;3.38;;
11620;SDS011;5866;49.094;11.900;2022-07-29T12:31:42;3.92;;;3.63;;
11620;SDS011;5866;49.094;11.900;2022-07-29T12:34:10;6.47;;;6.00;;
11620;SDS011;5866;49.094;11.900;2022-07-29T12:36:38;6.47;;;5.97;;
11620;SDS011;5866;49.094;11.900;2022-07-29T12:39:07;8.55;;;8.13;;
11620;SDS011;5866;49.094;11.900;2022-07-29T12:41:35;8.38;;;7.88;;
11620;SDS011;5866;49.094;11.900;2022-07-29T12:44:03;8.02;;;7.63;;
11620;SDS011;5866;49.094;11.900;2022-07-29T12:46:30;8.50;;;8.10;;
11620;SDS011;5866;49.094;11.900;2022-07-29T12:48:59;5.30;;;4.97;;
11620;SDS011;5866;49.094;11.900;2022-07-29T12:51:29;8.88;;;8.38;;
11620;SDS011;5866;49.094;11.900;2022-07-29T12:54:01;7.57;;;7.18;;
11620;SDS011;5866;49.094;11.900;2022-07-29T12:56:30;9.02;;;8.43;;
11620;SDS011;5866;49.094;11.900;2022-07-29T12:59:12;9.45;;;8.85;;
11620;SDS011;5866;49.094;11.900;2022-07-29T13:01:41;8.63;;;8.15;;
11620;SDS011;5866;49.094;11.900;2022-07-29T13:04:10;12.93;;;12.27;;
11620;SDS011;5866;49.094;11.900;2022-07-29T13:06:38;13.75;;;12.85;;
11620;SDS011;5866;49.094;11.900;2022-07-29T13:09:12;7.32;;;6.82;;
11620;SDS011;5866;49.094;11.900;2022-07-29T13:11:40;4.47;;;4.07;;
11620;SDS011;5866;49.094;11.900;2022-07-29T13:14:14;6.38;;;5.93;;
11620;SDS011;5866;49.094;11.900;2022-07-29T13:17:00;13.15;;;12.48;;
11620;SDS011;5866;49.094;11.900;2022-07-29T13:19:34;10.85;;;10.23;;
11620;SDS011;5866;49.094;11.900;2022-07-29T13:22:04;18.45;;;17.25;;
11620;SDS011;5866;49.094;11.900;2022-07-29T13:24:31;20.00;;;18.90;;
11620;SDS011;5866;49.094;11.900;2022-07-29T13:26:59;13.63;;;12.73;;
11620;SDS011;5866;49.094;11.900;2022-07-29T13:29:30;8.52;;;7.90;;
11620;SDS011;5866;49.094;11.900;2022-07-29T13:31:58;6.38;;;5.97;;
11620;SDS011;5866;49.094;11.900;2022-07-29T13:34:26;14.25;;;13.43;;
11620;SDS011;5866;49.094;11.900;2022-07-29T13:36:55;14.90;;;13.90;;
11620;SDS011;5866;49.094;11.900;2022-07-29T13:39:23;11.50;;;10.90;;
11620;SDS011;5866;49.094;11.900;2022-07-29T13:41:53;14.15;;;13.25;;
11620;SDS011;5866;49.094;11.900;2022-07-29T13:44:22;6.80;;;6.40;;
11620;SDS011;5866;49.094;11.900;2022-07-29T13:46:50;8.65;;;8.15;;
11620;SDS011;5866;49.094;11.900;2022-07-29T13:49:17;4.53;;;4.13;;
11620;SDS011;5866;49.094;11.900;2022-07-29T13:51:45;5.68;;;5.28;;
11620;SDS011;5866;49.094;11.900;2022-07-29T13:54:14;3.80;;;3.60;;
11620;SDS011;5866;49.094;11.900;2022-07-29T13:56:42;6.97;;;6.47;;
11620;SDS011;5866;49.094;11.900;2022-07-29T13:59:11;8.45;;;7.85;;
11620;SDS011;5866;49.094;11.900;2022-07-29T14:01:39;4.63;;;4.32;;
11620;SDS011;5866;49.094;11.900;2022-07-29T14:04:08;7.32;;;6.93;;
11620;SDS011;5866;49.094;11.900;2022-07-29T14:06:37;9.15;;;8.65;;
11620;SDS011;5866;49.094;11.900;2022-07-29T14:09:06;10.18;;;9.57;;
11620;SDS011;5866;49.094;11.900;2022-07-29T14:11:36;8.63;;;8.02;;
11620;SDS011;5866;49.094;11.900;2022-07-29T14:14:04;10.50;;;9.80;;
11620;SDS011;5866;49.094;11.900;2022-07-29T14:16:32;9.98;;;9.38;;
11620;SDS011;5866;49.094;11.900;2022-07-29T14:19:05;6.93;;;6.53;;
11620;SDS011;5866;49.094;11.900;2022-07-29T14:21:33;5.32;;;4.85;;
11620;SDS011;5866;49.094;11.900;2022-07-29T14:24:02;4.25;;;3.70;;
11620;SDS011;5866;49.094;11.900;2022-07-29T14:26:44;8.35;;;7.85;;
11620;SDS011;5866;49.094;11.900;2022-07-29T14:29:12;5.97;;;5.43;;
11620;SDS011;5866;49.094;11.900;2022-07-29T14:31:39;10.77;;;7.78;;
11620;SDS011;5866;49.094;11.900;2022-07-29T14:34:09;4.82;;;4.20;;
11620;SDS011;5866;49.094;11.900;2022-07-29T14:36:36;3.33;;;3.13;;
11620;SDS011;5866;49.094;11.900;2022-07-29T14:39:04;6.63;;;5.82;;
11620;SDS011;5866;49.094;11.900;2022-07-29T14:41:32;7.35;;;6.95;;
11620;SDS011;5866;49.094;11.900;2022-07-29T14:44:01;7.97;;;7.30;;
11620;SDS011;5866;49.094;11.900;2022-07-29T14:46:28;6.88;;;6.38;;
11620;SDS011;5866;49.094;11.900;2022-07-29T14:48:56;5.47;;;5.18;;
11620;SDS011;5866;49.094;11.900;2022-07-29T14:51:23;8.57;;;8.07;;
11620;SDS011;5866;49.094;11.900;2022-07-29T14:53:57;7.13;;;6.65;;
11620;SDS011;5866;49.094;11.900;2022-07-29T14:56:25;4.60;;;4.22;;
11620;SDS011;5866;49.094;11.900;2022-07-29T14:59:03;7.40;;;7.00;;
11620;SDS011;5866;49.094;11.900;2022-07-29T15:01:31;7.03;;;5.50;;
11620;SDS011;5866;49.094;11.900;2022-07-29T15:03:59;7.70;;;7.10;;
11620;SDS011;5866;49.094;11.900;2022-07-29T15:06:27;9.48;;;8.90;;
11620;SDS011;5866;49.094;11.900;2022-07-29T15:08:54;9.52;;;8.88;;
11620;SDS011;5866;49.094;11.900;2022-07-29T15:11:22;5.53;;;5.00;;
11620;SDS011;5866;49.094;11.900;2022-07-29T15:13:49;4.97;;;4.57;;